ECARG LHBP-EDMO
Flight info
| Callsign | ECARG |
|---|---|
| Flight time | 2h 57m |
| Altitude | 15000 |
| Route | DCT |
| Aircraft | PA24/L-SDGRY/S |
Departure
| Time | 2026-04-25 11:03 |
|---|---|
| Airport | Budapest Liszt Ferenc International Airport (LHBP) |
Arrival
| Time | 2026-04-25 14:01 |
|---|---|
| Airport | Oberpfaffenhofen Airport (EDMO) |
| Time | Latitude | Longitude | Altitude | Speed | Heading |
|---|---|---|---|---|---|
| 2026-04-25 10:47 | 47.44064 | 19.22645 | 467 ft | 0 kts | 109° |
| 2026-04-25 10:58 | 47.44063 | 19.22650 | 467 ft | 3 kts | 108° |
| 2026-04-25 10:58 | 47.44012 | 19.22678 | 465 ft | 14 kts | 193° |
| 2026-04-25 10:58 | 47.43900 | 19.22658 | 453 ft | 18 kts | 142° |
| 2026-04-25 10:59 | 47.43796 | 19.22779 | 448 ft | 20 kts | 144° |
| 2026-04-25 10:59 | 47.43689 | 19.22901 | 435 ft | 19 kts | 144° |
| 2026-04-25 10:59 | 47.43580 | 19.23016 | 444 ft | 19 kts | 143° |
| 2026-04-25 10:59 | 47.43480 | 19.23131 | 443 ft | 18 kts | 145° |
| 2026-04-25 11:00 | 47.43417 | 19.23265 | 446 ft | 14 kts | 117° |
| 2026-04-25 11:00 | 47.43371 | 19.23408 | 449 ft | 20 kts | 114° |
| 2026-04-25 11:00 | 47.43298 | 19.23616 | 453 ft | 26 kts | 116° |
| 2026-04-25 11:00 | 47.43210 | 19.23888 | 456 ft | 33 kts | 113° |
| 2026-04-25 11:01 | 47.43101 | 19.24212 | 462 ft | 38 kts | 116° |
| 2026-04-25 11:01 | 47.42984 | 19.24560 | 472 ft | 36 kts | 116° |
| 2026-04-25 11:01 | 47.42947 | 19.24673 | 477 ft | 2 kts | 111° |
| 2026-04-25 11:01 | 47.42922 | 19.24741 | 479 ft | 18 kts | 124° |
| 2026-04-25 11:02 | 47.42968 | 19.24879 | 485 ft | 15 kts | 47° |
| 2026-04-25 11:02 | 47.43062 | 19.24945 | 485 ft | 16 kts | 353° |
| 2026-04-25 11:02 | 47.43159 | 19.24839 | 484 ft | 27 kts | 313° |
| 2026-04-25 11:02 | 47.43398 | 19.24459 | 521 ft | 70 kts | 311° |
| 2026-04-25 11:03 | 47.43759 | 19.23896 | 726 ft | 77 kts | 310° |
| 2026-04-25 11:03 | 47.44142 | 19.23342 | 1002 ft | 75 kts | 312° |
| 2026-04-25 11:03 | 47.44533 | 19.22838 | 1364 ft | 75 kts | 314° |
| 2026-04-25 11:03 | 47.44918 | 19.22358 | 1816 ft | 68 kts | 313° |
| 2026-04-25 11:04 | 47.45249 | 19.21879 | 2267 ft | 65 kts | 312° |
| 2026-04-25 11:04 | 47.45614 | 19.21410 | 2530 ft | 70 kts | 313° |
| 2026-04-25 11:04 | 47.45951 | 19.20897 | 2830 ft | 72 kts | 309° |
| 2026-04-25 11:04 | 47.46182 | 19.20552 | 3052 ft | 70 kts | 313° |
| 2026-04-25 11:05 | 47.46625 | 19.19948 | 3561 ft | 63 kts | 311° |
| 2026-04-25 11:05 | 47.46949 | 19.19462 | 3770 ft | 69 kts | 311° |
| 2026-04-25 11:05 | 47.47271 | 19.18908 | 3960 ft | 79 kts | 302° |
| 2026-04-25 11:05 | 47.47205 | 19.18031 | 4131 ft | 94 kts | 264° |
| 2026-04-25 11:06 | 47.47171 | 19.17047 | 4360 ft | 99 kts | 278° |
| 2026-04-25 11:06 | 47.47161 | 19.15991 | 4596 ft | 105 kts | 277° |
| 2026-04-25 11:06 | 47.47146 | 19.14909 | 4831 ft | 105 kts | 277° |
| 2026-04-25 11:06 | 47.47125 | 19.13817 | 5055 ft | 107 kts | 277° |
| 2026-04-25 11:07 | 47.47104 | 19.12720 | 5278 ft | 106 kts | 277° |
| 2026-04-25 11:07 | 47.47081 | 19.11648 | 5500 ft | 106 kts | 277° |
| 2026-04-25 11:07 | 47.47058 | 19.10553 | 5720 ft | 107 kts | 277° |
| 2026-04-25 11:07 | 47.47035 | 19.09470 | 5952 ft | 106 kts | 277° |
| 2026-04-25 11:08 | 47.47009 | 19.08375 | 6172 ft | 107 kts | 277° |
| 2026-04-25 11:08 | 47.46977 | 19.07285 | 6394 ft | 105 kts | 277° |
| 2026-04-25 11:08 | 47.46943 | 19.06205 | 6607 ft | 105 kts | 276° |
| 2026-04-25 11:08 | 47.46916 | 19.05128 | 6820 ft | 105 kts | 276° |
| 2026-04-25 11:09 | 47.46889 | 19.04062 | 7031 ft | 103 kts | 277° |
| 2026-04-25 11:09 | 47.46859 | 19.03034 | 7240 ft | 100 kts | 276° |
| 2026-04-25 11:09 | 47.46831 | 19.02015 | 7453 ft | 98 kts | 276° |
| 2026-04-25 11:09 | 47.46795 | 19.01022 | 7668 ft | 95 kts | 276° |
| 2026-04-25 11:10 | 47.46747 | 19.00061 | 7879 ft | 92 kts | 276° |
| 2026-04-25 11:10 | 47.46728 | 18.99743 | 7955 ft | 92 kts | 276° |
| 2026-04-25 11:10 | 47.46639 | 18.98239 | 8309 ft | 85 kts | 276° |
| 2026-04-25 11:10 | 47.46588 | 18.97391 | 8522 ft | 81 kts | 276° |
| 2026-04-25 11:11 | 47.46530 | 18.96591 | 8734 ft | 76 kts | 276° |
| 2026-04-25 11:11 | 47.46474 | 18.95846 | 8943 ft | 71 kts | 275° |
| 2026-04-25 11:11 | 47.46430 | 18.95152 | 9149 ft | 66 kts | 275° |
| 2026-04-25 11:11 | 47.46372 | 18.94518 | 9353 ft | 58 kts | 275° |
| 2026-04-25 11:12 | 47.46312 | 18.93954 | 9511 ft | 56 kts | 276° |
| 2026-04-25 11:12 | 47.46259 | 18.93271 | 9584 ft | 76 kts | 276° |
| 2026-04-25 11:12 | 47.46203 | 18.92464 | 9785 ft | 82 kts | 276° |
| 2026-04-25 11:12 | 47.46291 | 18.91678 | 9951 ft | 77 kts | 321° |
| 2026-04-25 11:13 | 47.46653 | 18.91107 | 10113 ft | 81 kts | 298° |
| 2026-04-25 11:13 | 47.46795 | 18.90264 | 10277 ft | 86 kts | 293° |
| 2026-04-25 11:13 | 47.46941 | 18.89393 | 10434 ft | 91 kts | 291° |
| 2026-04-25 11:13 | 47.47075 | 18.88465 | 10591 ft | 94 kts | 289° |
| 2026-04-25 11:14 | 47.47201 | 18.87504 | 10744 ft | 96 kts | 289° |
| 2026-04-25 11:14 | 47.47324 | 18.86521 | 10896 ft | 99 kts | 287° |
| 2026-04-25 11:14 | 47.47445 | 18.85508 | 11050 ft | 101 kts | 287° |
| 2026-04-25 11:14 | 47.47568 | 18.84472 | 11202 ft | 103 kts | 287° |
| 2026-04-25 11:15 | 47.47690 | 18.83428 | 11356 ft | 104 kts | 287° |
| 2026-04-25 11:15 | 47.47813 | 18.82369 | 11511 ft | 105 kts | 287° |
| 2026-04-25 11:15 | 47.47935 | 18.81305 | 11662 ft | 105 kts | 287° |
| 2026-04-25 11:15 | 47.48055 | 18.80257 | 11811 ft | 105 kts | 287° |
| 2026-04-25 11:16 | 47.48298 | 18.78146 | 12109 ft | 104 kts | 287° |
| 2026-04-25 11:16 | 47.48418 | 18.77099 | 12260 ft | 103 kts | 287° |
| 2026-04-25 11:16 | 47.48537 | 18.76057 | 12410 ft | 102 kts | 287° |
| 2026-04-25 11:17 | 47.48655 | 18.75026 | 12557 ft | 101 kts | 287° |
| 2026-04-25 11:17 | 47.48772 | 18.74002 | 12710 ft | 101 kts | 286° |
| 2026-04-25 11:17 | 47.48888 | 18.72983 | 12860 ft | 100 kts | 286° |
| 2026-04-25 11:17 | 47.49001 | 18.71993 | 13010 ft | 98 kts | 287° |
| 2026-04-25 11:18 | 47.49114 | 18.71003 | 13162 ft | 97 kts | 286° |
| 2026-04-25 11:18 | 47.49224 | 18.70033 | 13314 ft | 95 kts | 286° |
| 2026-04-25 11:18 | 47.49332 | 18.69081 | 13466 ft | 93 kts | 287° |
| 2026-04-25 11:18 | 47.49438 | 18.68144 | 13618 ft | 92 kts | 286° |
| 2026-04-25 11:19 | 47.49542 | 18.67222 | 13769 ft | 90 kts | 286° |
| 2026-04-25 11:19 | 47.49611 | 18.66618 | 13868 ft | 90 kts | 285° |
| 2026-04-25 11:19 | 47.49713 | 18.65713 | 14007 ft | 89 kts | 286° |
| 2026-04-25 11:19 | 47.49848 | 18.64527 | 14188 ft | 88 kts | 285° |
| 2026-04-25 11:20 | 47.49948 | 18.63640 | 14326 ft | 87 kts | 286° |
| 2026-04-25 11:20 | 47.50047 | 18.62766 | 14465 ft | 86 kts | 286° |
| 2026-04-25 11:20 | 47.50145 | 18.61898 | 14603 ft | 85 kts | 285° |
| 2026-04-25 11:20 | 47.50210 | 18.61327 | 14696 ft | 84 kts | 286° |
| 2026-04-25 11:21 | 47.50306 | 18.60478 | 14836 ft | 83 kts | 286° |
| 2026-04-25 11:21 | 47.50400 | 18.59643 | 14977 ft | 82 kts | 286° |
| 2026-04-25 11:21 | 47.50499 | 18.58782 | 15031 ft | 91 kts | 286° |
| 2026-04-25 11:21 | 47.50647 | 18.57491 | 15044 ft | 101 kts | 285° |
| 2026-04-25 11:22 | 47.50769 | 18.56422 | 15041 ft | 109 kts | 285° |
| 2026-04-25 11:22 | 47.50855 | 18.55662 | 15042 ft | 113 kts | 285° |
| 2026-04-25 11:22 | 47.50987 | 18.54495 | 15042 ft | 117 kts | 284° |
| 2026-04-25 11:22 | 47.51167 | 18.52900 | 15040 ft | 121 kts | 284° |
| 2026-04-25 11:23 | 47.51257 | 18.52091 | 15041 ft | 120 kts | 284° |
| 2026-04-25 11:23 | 47.51394 | 18.50866 | 15041 ft | 121 kts | 284° |
| 2026-04-25 11:23 | 47.51533 | 18.49631 | 15045 ft | 123 kts | 284° |
| 2026-04-25 11:23 | 47.51673 | 18.48383 | 15045 ft | 123 kts | 284° |
| 2026-04-25 11:24 | 47.51814 | 18.47128 | 15042 ft | 124 kts | 284° |
| 2026-04-25 11:24 | 47.51954 | 18.45870 | 15041 ft | 124 kts | 284° |
| 2026-04-25 11:24 | 47.52095 | 18.44612 | 15044 ft | 123 kts | 284° |
| 2026-04-25 11:24 | 47.52235 | 18.43357 | 15043 ft | 124 kts | 284° |
| 2026-04-25 11:25 | 47.52373 | 18.42118 | 15042 ft | 124 kts | 284° |
| 2026-04-25 11:25 | 47.52513 | 18.40863 | 15043 ft | 124 kts | 284° |
| 2026-04-25 11:25 | 47.52650 | 18.39624 | 15038 ft | 119 kts | 284° |
| 2026-04-25 11:25 | 47.52781 | 18.38440 | 15029 ft | 114 kts | 284° |
| 2026-04-25 11:26 | 47.52907 | 18.37295 | 15025 ft | 111 kts | 285° |
| 2026-04-25 11:26 | 47.53032 | 18.36175 | 15026 ft | 109 kts | 284° |
| 2026-04-25 11:26 | 47.53154 | 18.35069 | 15023 ft | 108 kts | 285° |
| 2026-04-25 11:26 | 47.53274 | 18.33982 | 15029 ft | 106 kts | 285° |
| 2026-04-25 11:27 | 47.53393 | 18.32907 | 15029 ft | 106 kts | 285° |
| 2026-04-25 11:27 | 47.53510 | 18.31849 | 15027 ft | 105 kts | 284° |
| 2026-04-25 11:27 | 47.53627 | 18.30788 | 15028 ft | 104 kts | 285° |
| 2026-04-25 11:27 | 47.53705 | 18.30077 | 15028 ft | 103 kts | 285° |
| 2026-04-25 11:28 | 47.53857 | 18.28702 | 15027 ft | 102 kts | 285° |
| 2026-04-25 11:28 | 47.53971 | 18.27668 | 15028 ft | 102 kts | 285° |
| 2026-04-25 11:28 | 47.54085 | 18.26634 | 15028 ft | 102 kts | 285° |
| 2026-04-25 11:28 | 47.54199 | 18.25598 | 15023 ft | 102 kts | 284° |
| 2026-04-25 11:29 | 47.54312 | 18.24567 | 15030 ft | 102 kts | 284° |
| 2026-04-25 11:29 | 47.54426 | 18.23530 | 15029 ft | 102 kts | 284° |
| 2026-04-25 11:29 | 47.54538 | 18.22504 | 15029 ft | 103 kts | 284° |
| 2026-04-25 11:29 | 47.54653 | 18.21461 | 15030 ft | 104 kts | 284° |
| 2026-04-25 11:30 | 47.54770 | 18.20394 | 15037 ft | 107 kts | 284° |
| 2026-04-25 11:30 | 47.54891 | 18.19294 | 15042 ft | 109 kts | 284° |
| 2026-04-25 11:30 | 47.55014 | 18.18171 | 15049 ft | 112 kts | 284° |
| 2026-04-25 11:30 | 47.55139 | 18.17023 | 15050 ft | 114 kts | 284° |
| 2026-04-25 11:31 | 47.55266 | 18.15862 | 15058 ft | 115 kts | 284° |
| 2026-04-25 11:31 | 47.55394 | 18.14687 | 15053 ft | 116 kts | 284° |
| 2026-04-25 11:31 | 47.55522 | 18.13510 | 15052 ft | 116 kts | 284° |
| 2026-04-25 11:31 | 47.55648 | 18.12351 | 15052 ft | 116 kts | 284° |
| 2026-04-25 11:32 | 47.55777 | 18.11167 | 15052 ft | 117 kts | 284° |
| 2026-04-25 11:32 | 47.55906 | 18.09980 | 15053 ft | 117 kts | 284° |
| 2026-04-25 11:32 | 47.56035 | 18.08787 | 15052 ft | 118 kts | 284° |
| 2026-04-25 11:32 | 47.56165 | 18.07587 | 15051 ft | 118 kts | 284° |
| 2026-04-25 11:33 | 47.56295 | 18.06386 | 15050 ft | 118 kts | 284° |
| 2026-04-25 11:33 | 47.56424 | 18.05189 | 15050 ft | 118 kts | 284° |
| 2026-04-25 11:33 | 47.56554 | 18.03993 | 15048 ft | 117 kts | 284° |
| 2026-04-25 11:33 | 47.56680 | 18.02814 | 15049 ft | 117 kts | 284° |
| 2026-04-25 11:34 | 47.56809 | 18.01621 | 15046 ft | 117 kts | 284° |
| 2026-04-25 11:34 | 47.56937 | 18.00428 | 15047 ft | 117 kts | 284° |
| 2026-04-25 11:34 | 47.57066 | 17.99232 | 15047 ft | 118 kts | 284° |
| 2026-04-25 11:34 | 47.57195 | 17.98036 | 15048 ft | 118 kts | 284° |
| 2026-04-25 11:35 | 47.57323 | 17.96838 | 15049 ft | 118 kts | 284° |
| 2026-04-25 11:35 | 47.57452 | 17.95637 | 15050 ft | 118 kts | 284° |
| 2026-04-25 11:35 | 47.57581 | 17.94436 | 15052 ft | 118 kts | 283° |
| 2026-04-25 11:35 | 47.57710 | 17.93231 | 15052 ft | 119 kts | 283° |
| 2026-04-25 11:36 | 47.57838 | 17.92035 | 15049 ft | 119 kts | 283° |
| 2026-04-25 11:36 | 47.57966 | 17.90831 | 15048 ft | 118 kts | 283° |
| 2026-04-25 11:36 | 47.58093 | 17.89634 | 15048 ft | 118 kts | 283° |
| 2026-04-25 11:36 | 47.58220 | 17.88442 | 15047 ft | 117 kts | 283° |
| 2026-04-25 11:37 | 47.58348 | 17.87249 | 15044 ft | 117 kts | 284° |
| 2026-04-25 11:37 | 47.58474 | 17.86056 | 15045 ft | 117 kts | 283° |
| 2026-04-25 11:37 | 47.58601 | 17.84865 | 15045 ft | 117 kts | 283° |
| 2026-04-25 11:37 | 47.58728 | 17.83672 | 15045 ft | 117 kts | 283° |
| 2026-04-25 11:38 | 47.58854 | 17.82481 | 15045 ft | 117 kts | 283° |
| 2026-04-25 11:38 | 47.58978 | 17.81305 | 15046 ft | 117 kts | 283° |
| 2026-04-25 11:38 | 47.59104 | 17.80115 | 15060 ft | 117 kts | 283° |
| 2026-04-25 11:38 | 47.59230 | 17.78923 | 15060 ft | 117 kts | 283° |
| 2026-04-25 11:39 | 47.59355 | 17.77735 | 15058 ft | 116 kts | 283° |
| 2026-04-25 11:39 | 47.59480 | 17.76554 | 15058 ft | 116 kts | 283° |
| 2026-04-25 11:39 | 47.59604 | 17.75372 | 15058 ft | 116 kts | 283° |
| 2026-04-25 11:39 | 47.59729 | 17.74184 | 15058 ft | 117 kts | 283° |
| 2026-04-25 11:40 | 47.59855 | 17.72990 | 15059 ft | 117 kts | 283° |
| 2026-04-25 11:40 | 47.59980 | 17.71797 | 15059 ft | 117 kts | 283° |
| 2026-04-25 11:40 | 47.60104 | 17.70618 | 15059 ft | 118 kts | 283° |
| 2026-04-25 11:40 | 47.60230 | 17.69421 | 15061 ft | 118 kts | 283° |
| 2026-04-25 11:41 | 47.60355 | 17.68224 | 15060 ft | 117 kts | 283° |
| 2026-04-25 11:41 | 47.60480 | 17.67030 | 15060 ft | 117 kts | 283° |
| 2026-04-25 11:41 | 47.60604 | 17.65841 | 15059 ft | 117 kts | 283° |
| 2026-04-25 11:41 | 47.60729 | 17.64647 | 15059 ft | 117 kts | 283° |
| 2026-04-25 11:42 | 47.60854 | 17.63451 | 15056 ft | 117 kts | 283° |
| 2026-04-25 11:42 | 47.60978 | 17.62259 | 15058 ft | 117 kts | 283° |
| 2026-04-25 11:42 | 47.61101 | 17.61075 | 15059 ft | 118 kts | 283° |
| 2026-04-25 11:42 | 47.61226 | 17.59872 | 15057 ft | 118 kts | 283° |
| 2026-04-25 11:43 | 47.61351 | 17.58669 | 15058 ft | 118 kts | 283° |
| 2026-04-25 11:43 | 47.61475 | 17.57467 | 15058 ft | 118 kts | 283° |
| 2026-04-25 11:43 | 47.61600 | 17.56266 | 15056 ft | 118 kts | 283° |
| 2026-04-25 11:43 | 47.61725 | 17.55066 | 15055 ft | 118 kts | 283° |
| 2026-04-25 11:44 | 47.61849 | 17.53866 | 15054 ft | 117 kts | 283° |
| 2026-04-25 11:44 | 47.61972 | 17.52674 | 15055 ft | 117 kts | 283° |
| 2026-04-25 11:44 | 47.62094 | 17.51493 | 15053 ft | 118 kts | 283° |
| 2026-04-25 11:44 | 47.62217 | 17.50296 | 15051 ft | 117 kts | 283° |
| 2026-04-25 11:45 | 47.62340 | 17.49100 | 15050 ft | 117 kts | 283° |
| 2026-04-25 11:45 | 47.62464 | 17.47901 | 15048 ft | 118 kts | 283° |
| 2026-04-25 11:45 | 47.62587 | 17.46701 | 15049 ft | 118 kts | 283° |
| 2026-04-25 11:45 | 47.62710 | 17.45504 | 15045 ft | 117 kts | 283° |
| 2026-04-25 11:46 | 47.62832 | 17.44312 | 15045 ft | 117 kts | 283° |
| 2026-04-25 11:46 | 47.62955 | 17.43117 | 15035 ft | 117 kts | 282° |
| 2026-04-25 11:46 | 47.63075 | 17.41942 | 15033 ft | 117 kts | 282° |
| 2026-04-25 11:46 | 47.63196 | 17.40755 | 15032 ft | 116 kts | 282° |
| 2026-04-25 11:47 | 47.63317 | 17.39570 | 15030 ft | 116 kts | 282° |
| 2026-04-25 11:47 | 47.63438 | 17.38384 | 15030 ft | 116 kts | 282° |
| 2026-04-25 11:47 | 47.63559 | 17.37198 | 15028 ft | 117 kts | 282° |
| 2026-04-25 11:47 | 47.63680 | 17.36009 | 15029 ft | 117 kts | 282° |
| 2026-04-25 11:48 | 47.63801 | 17.34819 | 15031 ft | 117 kts | 282° |
| 2026-04-25 11:48 | 47.63923 | 17.33623 | 15030 ft | 117 kts | 282° |
| 2026-04-25 11:48 | 47.64043 | 17.32431 | 15029 ft | 116 kts | 282° |
| 2026-04-25 11:48 | 47.64162 | 17.31263 | 15028 ft | 116 kts | 282° |
| 2026-04-25 11:49 | 47.64281 | 17.30082 | 15028 ft | 116 kts | 282° |
| 2026-04-25 11:49 | 47.64402 | 17.28894 | 15026 ft | 117 kts | 282° |
| 2026-04-25 11:49 | 47.64522 | 17.27704 | 15027 ft | 117 kts | 282° |
| 2026-04-25 11:49 | 47.64642 | 17.26516 | 15025 ft | 116 kts | 282° |
| 2026-04-25 11:50 | 47.64761 | 17.25334 | 15025 ft | 116 kts | 282° |
| 2026-04-25 11:50 | 47.64880 | 17.24148 | 15024 ft | 116 kts | 282° |
| 2026-04-25 11:50 | 47.64999 | 17.22964 | 15021 ft | 116 kts | 282° |
| 2026-04-25 11:50 | 47.65117 | 17.21796 | 15024 ft | 116 kts | 282° |
| 2026-04-25 11:51 | 47.65236 | 17.20608 | 15024 ft | 116 kts | 282° |
| 2026-04-25 11:51 | 47.65355 | 17.19418 | 15024 ft | 117 kts | 282° |
| 2026-04-25 11:51 | 47.65475 | 17.18224 | 15019 ft | 117 kts | 282° |
| 2026-04-25 11:51 | 47.65595 | 17.17027 | 15022 ft | 118 kts | 282° |
| 2026-04-25 11:52 | 47.65715 | 17.15828 | 15019 ft | 117 kts | 282° |
| 2026-04-25 11:52 | 47.65834 | 17.14630 | 15020 ft | 118 kts | 282° |
| 2026-04-25 11:52 | 47.65955 | 17.13425 | 15023 ft | 118 kts | 282° |
| 2026-04-25 11:52 | 47.66075 | 17.12219 | 15021 ft | 118 kts | 282° |
| 2026-04-25 11:53 | 47.66192 | 17.11037 | 15020 ft | 117 kts | 282° |
| 2026-04-25 11:53 | 47.66310 | 17.09848 | 15018 ft | 116 kts | 282° |
| 2026-04-25 11:53 | 47.66428 | 17.08666 | 15017 ft | 116 kts | 282° |
| 2026-04-25 11:53 | 47.66545 | 17.07486 | 15016 ft | 115 kts | 282° |
| 2026-04-25 11:54 | 47.66661 | 17.06310 | 15014 ft | 115 kts | 282° |
| 2026-04-25 11:54 | 47.66778 | 17.05134 | 15015 ft | 115 kts | 282° |
| 2026-04-25 11:54 | 47.67010 | 17.02787 | 15015 ft | 116 kts | 282° |
| 2026-04-25 11:55 | 47.67126 | 17.01606 | 15016 ft | 116 kts | 281° |
| 2026-04-25 11:55 | 47.67244 | 17.00417 | 15010 ft | 117 kts | 281° |
| 2026-04-25 11:55 | 47.67361 | 16.99221 | 15014 ft | 117 kts | 281° |
| 2026-04-25 11:55 | 47.67479 | 16.98029 | 15015 ft | 117 kts | 281° |
| 2026-04-25 11:56 | 47.67596 | 16.96834 | 15018 ft | 118 kts | 281° |
| 2026-04-25 11:56 | 47.67715 | 16.95629 | 15016 ft | 118 kts | 281° |
| 2026-04-25 11:56 | 47.67832 | 16.94429 | 15017 ft | 117 kts | 281° |
| 2026-04-25 11:56 | 47.67949 | 16.93230 | 15014 ft | 117 kts | 281° |
| 2026-04-25 11:57 | 47.68066 | 16.92032 | 15014 ft | 117 kts | 281° |
| 2026-04-25 11:57 | 47.68182 | 16.90853 | 15014 ft | 117 kts | 281° |
| 2026-04-25 11:57 | 47.68298 | 16.89660 | 15015 ft | 117 kts | 281° |
| 2026-04-25 11:57 | 47.68415 | 16.88467 | 15015 ft | 117 kts | 282° |
| 2026-04-25 11:58 | 47.68531 | 16.87271 | 15013 ft | 117 kts | 281° |
| 2026-04-25 11:58 | 47.68647 | 16.86079 | 15015 ft | 117 kts | 281° |
| 2026-04-25 11:58 | 47.68763 | 16.84885 | 15014 ft | 117 kts | 281° |
| 2026-04-25 11:58 | 47.68879 | 16.83693 | 15016 ft | 117 kts | 281° |
| 2026-04-25 11:59 | 47.68995 | 16.82495 | 15015 ft | 117 kts | 281° |
| 2026-04-25 11:59 | 47.69111 | 16.81301 | 15016 ft | 117 kts | 281° |
| 2026-04-25 11:59 | 47.69225 | 16.80125 | 15016 ft | 117 kts | 281° |
| 2026-04-25 12:00 | 47.69454 | 16.77747 | 15013 ft | 116 kts | 281° |
| 2026-04-25 12:00 | 47.69568 | 16.76558 | 15012 ft | 116 kts | 281° |
| 2026-04-25 12:00 | 47.69797 | 16.74180 | 15013 ft | 116 kts | 281° |
| 2026-04-25 12:01 | 47.69912 | 16.72991 | 15013 ft | 116 kts | 281° |
| 2026-04-25 12:01 | 47.70026 | 16.71805 | 15013 ft | 116 kts | 281° |
| 2026-04-25 12:01 | 47.70138 | 16.70635 | 15012 ft | 116 kts | 281° |
| 2026-04-25 12:01 | 47.70251 | 16.69448 | 15012 ft | 116 kts | 281° |
| 2026-04-25 12:02 | 47.70478 | 16.67076 | 15008 ft | 116 kts | 281° |
| 2026-04-25 12:02 | 47.70592 | 16.65885 | 15010 ft | 117 kts | 281° |
| 2026-04-25 12:02 | 47.70706 | 16.64684 | 15011 ft | 118 kts | 281° |
| 2026-04-25 12:03 | 47.70821 | 16.63485 | 15012 ft | 117 kts | 281° |
| 2026-04-25 12:03 | 47.70935 | 16.62286 | 15012 ft | 117 kts | 281° |
| 2026-04-25 12:03 | 47.71049 | 16.61085 | 15012 ft | 118 kts | 281° |
| 2026-04-25 12:03 | 47.71163 | 16.59884 | 15011 ft | 117 kts | 281° |
| 2026-04-25 12:04 | 47.71276 | 16.58685 | 15008 ft | 117 kts | 281° |
| 2026-04-25 12:04 | 47.71388 | 16.57502 | 15010 ft | 118 kts | 281° |
| 2026-04-25 12:04 | 47.71502 | 16.56302 | 15012 ft | 118 kts | 281° |
| 2026-04-25 12:04 | 47.71616 | 16.55098 | 15012 ft | 118 kts | 281° |
| 2026-04-25 12:05 | 47.71729 | 16.53896 | 15011 ft | 117 kts | 281° |
| 2026-04-25 12:05 | 47.71842 | 16.52699 | 15011 ft | 117 kts | 281° |
| 2026-04-25 12:05 | 47.71954 | 16.51501 | 15010 ft | 117 kts | 281° |
| 2026-04-25 12:05 | 47.72065 | 16.50323 | 15008 ft | 117 kts | 281° |
| 2026-04-25 12:06 | 47.72177 | 16.49131 | 15007 ft | 117 kts | 281° |
| 2026-04-25 12:06 | 47.72289 | 16.47939 | 15005 ft | 116 kts | 281° |
| 2026-04-25 12:06 | 47.72400 | 16.46754 | 15003 ft | 116 kts | 281° |
| 2026-04-25 12:06 | 47.72511 | 16.45575 | 15004 ft | 115 kts | 281° |
| 2026-04-25 12:07 | 47.72622 | 16.44393 | 15006 ft | 116 kts | 281° |
| 2026-04-25 12:07 | 47.72733 | 16.43198 | 15006 ft | 117 kts | 281° |
| 2026-04-25 12:07 | 47.72844 | 16.42001 | 15005 ft | 117 kts | 281° |
| 2026-04-25 12:07 | 47.72956 | 16.40806 | 15007 ft | 117 kts | 281° |
| 2026-04-25 12:08 | 47.73065 | 16.39631 | 15009 ft | 116 kts | 281° |
| 2026-04-25 12:08 | 47.73176 | 16.38437 | 15010 ft | 117 kts | 281° |
| 2026-04-25 12:08 | 47.73287 | 16.37244 | 15013 ft | 116 kts | 281° |
| 2026-04-25 12:08 | 47.73397 | 16.36053 | 15012 ft | 116 kts | 281° |
| 2026-04-25 12:09 | 47.73508 | 16.34862 | 15012 ft | 117 kts | 281° |
| 2026-04-25 12:09 | 47.73619 | 16.33665 | 15019 ft | 117 kts | 281° |
| 2026-04-25 12:09 | 47.73729 | 16.32468 | 15013 ft | 116 kts | 281° |
| 2026-04-25 12:09 | 47.73839 | 16.31284 | 15009 ft | 115 kts | 281° |
| 2026-04-25 12:10 | 47.73947 | 16.30107 | 15008 ft | 114 kts | 281° |
| 2026-04-25 12:10 | 47.74053 | 16.28951 | 15010 ft | 115 kts | 281° |
| 2026-04-25 12:10 | 47.74163 | 16.27766 | 15010 ft | 116 kts | 281° |
| 2026-04-25 12:10 | 47.74272 | 16.26573 | 15011 ft | 117 kts | 281° |
| 2026-04-25 12:11 | 47.74382 | 16.25371 | 15012 ft | 118 kts | 281° |
| 2026-04-25 12:11 | 47.74493 | 16.24165 | 15012 ft | 117 kts | 281° |
| 2026-04-25 12:11 | 47.74603 | 16.22968 | 15017 ft | 117 kts | 281° |
| 2026-04-25 12:11 | 47.74712 | 16.21772 | 15012 ft | 117 kts | 281° |
| 2026-04-25 12:12 | 47.74822 | 16.20576 | 15012 ft | 117 kts | 281° |
| 2026-04-25 12:12 | 47.74894 | 16.19787 | 15012 ft | 116 kts | 281° |
| 2026-04-25 12:12 | 47.75037 | 16.18207 | 15015 ft | 117 kts | 281° |
| 2026-04-25 12:12 | 47.75146 | 16.17014 | 15014 ft | 116 kts | 281° |
| 2026-04-25 12:13 | 47.75254 | 16.15830 | 15013 ft | 115 kts | 281° |
| 2026-04-25 12:13 | 47.75361 | 16.14652 | 15012 ft | 115 kts | 281° |
| 2026-04-25 12:13 | 47.75467 | 16.13478 | 15010 ft | 114 kts | 281° |
| 2026-04-25 12:13 | 47.75573 | 16.12308 | 15011 ft | 114 kts | 281° |
| 2026-04-25 12:14 | 47.75679 | 16.11139 | 15006 ft | 114 kts | 281° |
| 2026-04-25 12:14 | 47.75784 | 16.09973 | 15007 ft | 114 kts | 281° |
| 2026-04-25 12:14 | 47.75891 | 16.08797 | 15008 ft | 115 kts | 281° |
| 2026-04-25 12:14 | 47.75996 | 16.07628 | 15006 ft | 115 kts | 281° |
| 2026-04-25 12:15 | 47.76102 | 16.06453 | 15005 ft | 114 kts | 281° |
| 2026-04-25 12:15 | 47.76207 | 16.05279 | 15008 ft | 115 kts | 281° |
| 2026-04-25 12:15 | 47.76314 | 16.04097 | 15015 ft | 116 kts | 281° |
| 2026-04-25 12:15 | 47.76419 | 16.02925 | 15008 ft | 113 kts | 280° |
| 2026-04-25 12:16 | 47.76523 | 16.01768 | 15020 ft | 113 kts | 281° |
| 2026-04-25 12:16 | 47.76627 | 16.00604 | 15016 ft | 113 kts | 280° |
| 2026-04-25 12:16 | 47.76731 | 15.99442 | 15018 ft | 114 kts | 281° |
| 2026-04-25 12:16 | 47.76834 | 15.98293 | 15013 ft | 112 kts | 281° |
| 2026-04-25 12:17 | 47.76935 | 15.97147 | 15027 ft | 112 kts | 281° |
| 2026-04-25 12:17 | 47.77038 | 15.95990 | 15016 ft | 113 kts | 281° |
| 2026-04-25 12:17 | 47.77139 | 15.94843 | 15015 ft | 108 kts | 279° |
| 2026-04-25 12:17 | 47.77239 | 15.93708 | 15023 ft | 113 kts | 281° |
| 2026-04-25 12:18 | 47.77344 | 15.92560 | 15032 ft | 112 kts | 281° |
| 2026-04-25 12:18 | 47.77447 | 15.91402 | 15031 ft | 113 kts | 281° |
| 2026-04-25 12:18 | 47.77550 | 15.90241 | 15028 ft | 114 kts | 281° |
| 2026-04-25 12:18 | 47.77652 | 15.89085 | 15028 ft | 114 kts | 280° |
| 2026-04-25 12:19 | 47.77826 | 15.87113 | 15035 ft | 116 kts | 281° |
| 2026-04-25 12:19 | 47.77966 | 15.85527 | 15037 ft | 116 kts | 281° |
| 2026-04-25 12:19 | 47.78071 | 15.84339 | 15040 ft | 116 kts | 281° |
| 2026-04-25 12:20 | 47.78174 | 15.83159 | 15035 ft | 115 kts | 282° |
| 2026-04-25 12:20 | 47.78278 | 15.81982 | 15034 ft | 116 kts | 281° |
| 2026-04-25 12:20 | 47.78383 | 15.80793 | 15034 ft | 116 kts | 280° |
| 2026-04-25 12:20 | 47.78487 | 15.79605 | 15037 ft | 118 kts | 280° |
| 2026-04-25 12:21 | 47.78592 | 15.78395 | 15033 ft | 117 kts | 280° |
| 2026-04-25 12:21 | 47.78698 | 15.77193 | 15033 ft | 117 kts | 280° |
| 2026-04-25 12:21 | 47.78804 | 15.75986 | 15038 ft | 118 kts | 280° |
| 2026-04-25 12:21 | 47.78910 | 15.74768 | 15034 ft | 120 kts | 279° |
| 2026-04-25 12:22 | 47.79017 | 15.73533 | 15033 ft | 121 kts | 279° |
| 2026-04-25 12:22 | 47.79124 | 15.72309 | 15036 ft | 118 kts | 280° |
| 2026-04-25 12:22 | 47.79229 | 15.71102 | 15031 ft | 117 kts | 280° |
| 2026-04-25 12:22 | 47.79331 | 15.69927 | 15027 ft | 115 kts | 280° |
| 2026-04-25 12:23 | 47.79434 | 15.68741 | 15036 ft | 116 kts | 280° |
| 2026-04-25 12:23 | 47.79536 | 15.67553 | 15038 ft | 116 kts | 280° |
| 2026-04-25 12:23 | 47.79639 | 15.66363 | 15037 ft | 115 kts | 280° |
| 2026-04-25 12:23 | 47.79738 | 15.65203 | 15034 ft | 112 kts | 280° |
| 2026-04-25 12:24 | 47.79837 | 15.64059 | 15036 ft | 109 kts | 281° |
| 2026-04-25 12:24 | 47.79930 | 15.62975 | 15023 ft | 100 kts | 281° |
| 2026-04-25 12:24 | 47.80017 | 15.61984 | 15034 ft | 97 kts | 281° |
| 2026-04-25 12:24 | 47.80105 | 15.60948 | 15032 ft | 105 kts | 280° |
| 2026-04-25 12:25 | 47.80200 | 15.59841 | 15037 ft | 110 kts | 279° |
| 2026-04-25 12:25 | 47.80298 | 15.58709 | 15039 ft | 113 kts | 279° |
| 2026-04-25 12:25 | 47.80398 | 15.57541 | 15048 ft | 115 kts | 279° |
| 2026-04-25 12:25 | 47.80500 | 15.56351 | 15044 ft | 117 kts | 280° |
| 2026-04-25 12:26 | 47.80602 | 15.55145 | 15047 ft | 116 kts | 281° |
| 2026-04-25 12:26 | 47.80703 | 15.53980 | 15046 ft | 111 kts | 281° |
| 2026-04-25 12:26 | 47.80798 | 15.52861 | 15042 ft | 108 kts | 280° |
| 2026-04-25 12:26 | 47.80891 | 15.51761 | 15043 ft | 107 kts | 280° |
| 2026-04-25 12:27 | 47.80985 | 15.50661 | 15046 ft | 108 kts | 281° |
| 2026-04-25 12:27 | 47.81077 | 15.49574 | 15041 ft | 106 kts | 281° |
| 2026-04-25 12:27 | 47.81169 | 15.48490 | 15046 ft | 105 kts | 280° |
| 2026-04-25 12:27 | 47.81263 | 15.47389 | 15036 ft | 109 kts | 280° |
| 2026-04-25 12:28 | 47.81358 | 15.46268 | 15041 ft | 110 kts | 280° |
| 2026-04-25 12:28 | 47.81453 | 15.45124 | 15051 ft | 110 kts | 281° |
| 2026-04-25 12:28 | 47.81549 | 15.44005 | 15048 ft | 110 kts | 280° |
| 2026-04-25 12:28 | 47.81646 | 15.42860 | 15047 ft | 113 kts | 279° |
| 2026-04-25 12:29 | 47.81744 | 15.41697 | 15052 ft | 113 kts | 279° |
| 2026-04-25 12:29 | 47.81840 | 15.40544 | 15053 ft | 114 kts | 280° |
| 2026-04-25 12:29 | 47.81937 | 15.39397 | 15053 ft | 110 kts | 281° |
| 2026-04-25 12:29 | 47.82031 | 15.38283 | 15056 ft | 107 kts | 281° |
| 2026-04-25 12:30 | 47.82121 | 15.37203 | 15046 ft | 104 kts | 281° |
| 2026-04-25 12:30 | 47.82211 | 15.36130 | 15035 ft | 106 kts | 280° |
| 2026-04-25 12:30 | 47.82301 | 15.35043 | 15042 ft | 106 kts | 279° |
| 2026-04-25 12:30 | 47.82394 | 15.33945 | 15043 ft | 108 kts | 279° |
| 2026-04-25 12:31 | 47.82488 | 15.32822 | 15047 ft | 110 kts | 279° |
| 2026-04-25 12:31 | 47.82582 | 15.31696 | 15051 ft | 110 kts | 279° |
| 2026-04-25 12:31 | 47.82675 | 15.30575 | 15051 ft | 111 kts | 279° |
| 2026-04-25 12:31 | 47.82769 | 15.29438 | 15053 ft | 110 kts | 279° |
| 2026-04-25 12:32 | 47.82864 | 15.28305 | 15055 ft | 110 kts | 279° |
| 2026-04-25 12:32 | 47.82957 | 15.27180 | 15051 ft | 108 kts | 279° |
| 2026-04-25 12:32 | 47.83049 | 15.26074 | 15053 ft | 108 kts | 279° |
| 2026-04-25 12:32 | 47.83141 | 15.24962 | 15057 ft | 109 kts | 279° |
| 2026-04-25 12:33 | 47.83233 | 15.23845 | 15053 ft | 109 kts | 279° |
| 2026-04-25 12:33 | 47.83325 | 15.22727 | 15055 ft | 109 kts | 279° |
| 2026-04-25 12:33 | 47.83416 | 15.21622 | 15052 ft | 109 kts | 279° |
| 2026-04-25 12:33 | 47.83509 | 15.20500 | 15053 ft | 110 kts | 279° |
| 2026-04-25 12:34 | 47.83602 | 15.19372 | 15048 ft | 111 kts | 279° |
| 2026-04-25 12:34 | 47.83695 | 15.18237 | 15045 ft | 110 kts | 279° |
| 2026-04-25 12:34 | 47.83788 | 15.17105 | 15053 ft | 110 kts | 279° |
| 2026-04-25 12:34 | 47.83849 | 15.16350 | 15053 ft | 112 kts | 279° |
| 2026-04-25 12:35 | 47.83977 | 15.14794 | 15061 ft | 114 kts | 279° |
| 2026-04-25 12:35 | 47.84073 | 15.13623 | 15059 ft | 114 kts | 279° |
| 2026-04-25 12:35 | 47.84167 | 15.12467 | 15054 ft | 113 kts | 279° |
| 2026-04-25 12:35 | 47.84262 | 15.11308 | 15051 ft | 112 kts | 279° |
| 2026-04-25 12:36 | 47.84354 | 15.10169 | 15044 ft | 112 kts | 279° |
| 2026-04-25 12:36 | 47.84449 | 15.09011 | 15059 ft | 114 kts | 279° |
| 2026-04-25 12:36 | 47.84544 | 15.07837 | 15059 ft | 115 kts | 279° |
| 2026-04-25 12:36 | 47.84641 | 15.06651 | 15048 ft | 115 kts | 279° |
| 2026-04-25 12:37 | 47.84736 | 15.05476 | 15053 ft | 114 kts | 279° |
| 2026-04-25 12:37 | 47.84830 | 15.04307 | 15056 ft | 114 kts | 279° |
| 2026-04-25 12:37 | 47.84924 | 15.03150 | 15052 ft | 111 kts | 280° |
| 2026-04-25 12:37 | 47.85015 | 15.02017 | 15056 ft | 113 kts | 279° |
| 2026-04-25 12:38 | 47.85110 | 15.00847 | 15057 ft | 115 kts | 279° |
| 2026-04-25 12:38 | 47.85206 | 14.99657 | 15058 ft | 116 kts | 279° |
| 2026-04-25 12:38 | 47.85302 | 14.98455 | 15061 ft | 117 kts | 278° |
| 2026-04-25 12:38 | 47.85399 | 14.97254 | 15069 ft | 117 kts | 279° |
| 2026-04-25 12:39 | 47.85495 | 14.96055 | 15052 ft | 116 kts | 279° |
| 2026-04-25 12:39 | 47.85589 | 14.94874 | 15053 ft | 114 kts | 279° |
| 2026-04-25 12:39 | 47.85683 | 14.93702 | 15047 ft | 114 kts | 279° |
| 2026-04-25 12:39 | 47.85777 | 14.92527 | 15048 ft | 114 kts | 279° |
| 2026-04-25 12:40 | 47.85870 | 14.91365 | 15045 ft | 115 kts | 279° |
| 2026-04-25 12:40 | 47.85963 | 14.90193 | 15050 ft | 114 kts | 279° |
| 2026-04-25 12:40 | 47.86056 | 14.89022 | 15048 ft | 115 kts | 279° |
| 2026-04-25 12:40 | 47.86151 | 14.87827 | 15051 ft | 118 kts | 279° |
| 2026-04-25 12:41 | 47.86247 | 14.86613 | 15058 ft | 118 kts | 279° |
| 2026-04-25 12:41 | 47.86344 | 14.85393 | 15061 ft | 118 kts | 278° |
| 2026-04-25 12:41 | 47.86440 | 14.84176 | 15061 ft | 118 kts | 278° |
| 2026-04-25 12:41 | 47.86536 | 14.82958 | 15067 ft | 119 kts | 278° |
| 2026-04-25 12:42 | 47.86631 | 14.81744 | 15061 ft | 117 kts | 278° |
| 2026-04-25 12:42 | 47.86694 | 14.80943 | 15061 ft | 118 kts | 278° |
| 2026-04-25 12:42 | 47.86820 | 14.79338 | 15061 ft | 118 kts | 278° |
| 2026-04-25 12:42 | 47.86916 | 14.78114 | 15057 ft | 120 kts | 278° |
| 2026-04-25 12:43 | 47.87013 | 14.76877 | 15063 ft | 120 kts | 278° |
| 2026-04-25 12:43 | 47.87111 | 14.75635 | 15061 ft | 121 kts | 278° |
| 2026-04-25 12:43 | 47.87303 | 14.73171 | 15057 ft | 118 kts | 278° |
| 2026-04-25 12:44 | 47.87398 | 14.71957 | 15052 ft | 118 kts | 278° |
| 2026-04-25 12:44 | 47.87492 | 14.70754 | 15054 ft | 119 kts | 279° |
| 2026-04-25 12:44 | 47.87682 | 14.68312 | 15057 ft | 119 kts | 278° |
| 2026-04-25 12:45 | 47.87777 | 14.67087 | 15057 ft | 119 kts | 278° |
| 2026-04-25 12:45 | 47.87872 | 14.65866 | 15053 ft | 118 kts | 278° |
| 2026-04-25 12:45 | 47.88057 | 14.63472 | 15058 ft | 116 kts | 278° |
| 2026-04-25 12:46 | 47.88150 | 14.62271 | 15061 ft | 117 kts | 278° |
| 2026-04-25 12:46 | 47.88242 | 14.61076 | 15062 ft | 118 kts | 278° |
| 2026-04-25 12:46 | 47.88334 | 14.59871 | 15062 ft | 116 kts | 278° |
| 2026-04-25 12:46 | 47.88425 | 14.58668 | 15052 ft | 116 kts | 278° |
| 2026-04-25 12:47 | 47.88518 | 14.57479 | 15054 ft | 116 kts | 278° |
| 2026-04-25 12:47 | 47.88608 | 14.56291 | 15055 ft | 115 kts | 278° |
| 2026-04-25 12:47 | 47.88700 | 14.55098 | 15058 ft | 117 kts | 278° |
| 2026-04-25 12:47 | 47.88792 | 14.53895 | 15061 ft | 117 kts | 279° |
| 2026-04-25 12:48 | 47.88881 | 14.52715 | 15054 ft | 114 kts | 278° |
| 2026-04-25 12:48 | 47.88970 | 14.51554 | 15056 ft | 114 kts | 278° |
| 2026-04-25 12:48 | 47.89060 | 14.50379 | 15055 ft | 115 kts | 278° |
| 2026-04-25 12:48 | 47.89150 | 14.49189 | 15054 ft | 116 kts | 278° |
| 2026-04-25 12:49 | 47.89241 | 14.47994 | 15051 ft | 116 kts | 278° |
| 2026-04-25 12:49 | 47.89331 | 14.46805 | 15059 ft | 116 kts | 278° |
| 2026-04-25 12:49 | 47.89421 | 14.45616 | 15047 ft | 113 kts | 279° |
| 2026-04-25 12:49 | 47.89507 | 14.44461 | 15054 ft | 113 kts | 278° |
| 2026-04-25 12:50 | 47.89596 | 14.43296 | 15054 ft | 113 kts | 278° |
| 2026-04-25 12:50 | 47.89685 | 14.42127 | 15056 ft | 114 kts | 278° |
| 2026-04-25 12:50 | 47.89773 | 14.40954 | 15057 ft | 113 kts | 278° |
| 2026-04-25 12:50 | 47.89859 | 14.39807 | 15063 ft | 114 kts | 278° |
| 2026-04-25 12:51 | 47.89948 | 14.38622 | 15064 ft | 116 kts | 278° |
| 2026-04-25 12:51 | 47.90038 | 14.37424 | 15065 ft | 116 kts | 278° |
| 2026-04-25 12:51 | 47.90128 | 14.36223 | 15064 ft | 117 kts | 278° |
| 2026-04-25 12:51 | 47.90217 | 14.35022 | 15068 ft | 116 kts | 277° |
| 2026-04-25 12:52 | 47.90305 | 14.33844 | 15065 ft | 113 kts | 277° |
| 2026-04-25 12:52 | 47.90391 | 14.32684 | 15067 ft | 112 kts | 278° |
| 2026-04-25 12:52 | 47.90478 | 14.31523 | 15065 ft | 113 kts | 278° |
| 2026-04-25 12:52 | 47.90565 | 14.30362 | 15069 ft | 113 kts | 278° |
| 2026-04-25 12:53 | 47.90651 | 14.29206 | 15068 ft | 114 kts | 278° |
| 2026-04-25 12:53 | 47.90738 | 14.28027 | 15067 ft | 115 kts | 278° |
| 2026-04-25 12:53 | 47.90825 | 14.26846 | 15069 ft | 115 kts | 278° |
| 2026-04-25 12:53 | 47.90913 | 14.25658 | 15073 ft | 116 kts | 278° |
| 2026-04-25 12:54 | 47.91002 | 14.24456 | 15073 ft | 118 kts | 278° |
| 2026-04-25 12:54 | 47.91090 | 14.23250 | 15071 ft | 116 kts | 278° |
| 2026-04-25 12:54 | 47.91179 | 14.22054 | 15066 ft | 116 kts | 277° |
| 2026-04-25 12:54 | 47.91266 | 14.20860 | 15066 ft | 116 kts | 278° |
| 2026-04-25 12:55 | 47.91354 | 14.19667 | 15066 ft | 116 kts | 278° |
| 2026-04-25 12:55 | 47.91412 | 14.18872 | 15064 ft | 117 kts | 278° |
| 2026-04-25 12:55 | 47.91529 | 14.17282 | 15065 ft | 117 kts | 278° |
| 2026-04-25 12:55 | 47.91616 | 14.16083 | 15062 ft | 116 kts | 278° |
| 2026-04-25 12:56 | 47.91703 | 14.14891 | 15060 ft | 115 kts | 277° |
| 2026-04-25 12:56 | 47.91790 | 14.13701 | 15061 ft | 115 kts | 277° |
| 2026-04-25 12:56 | 47.91876 | 14.12510 | 15061 ft | 116 kts | 278° |
| 2026-04-25 12:56 | 47.91964 | 14.11315 | 15062 ft | 116 kts | 278° |
| 2026-04-25 12:57 | 47.92050 | 14.10122 | 15064 ft | 116 kts | 277° |
| 2026-04-25 12:57 | 47.92136 | 14.08926 | 15062 ft | 116 kts | 278° |
| 2026-04-25 12:57 | 47.92223 | 14.07734 | 15062 ft | 116 kts | 277° |
| 2026-04-25 12:57 | 47.92307 | 14.06560 | 15060 ft | 115 kts | 277° |
| 2026-04-25 12:58 | 47.92393 | 14.05379 | 15055 ft | 114 kts | 277° |
| 2026-04-25 12:58 | 47.92477 | 14.04205 | 15057 ft | 114 kts | 277° |
| 2026-04-25 12:58 | 47.92562 | 14.03021 | 15054 ft | 115 kts | 277° |
| 2026-04-25 12:58 | 47.92647 | 14.01840 | 15054 ft | 115 kts | 277° |
| 2026-04-25 12:59 | 47.92732 | 14.00652 | 15057 ft | 115 kts | 278° |
| 2026-04-25 12:59 | 47.92818 | 13.99455 | 15060 ft | 117 kts | 277° |
| 2026-04-25 12:59 | 47.92905 | 13.98244 | 15062 ft | 118 kts | 278° |
| 2026-04-25 12:59 | 47.92990 | 13.97054 | 15063 ft | 116 kts | 277° |
| 2026-04-25 13:00 | 47.93075 | 13.95859 | 15062 ft | 115 kts | 278° |
| 2026-04-25 13:00 | 47.93103 | 13.95459 | 15061 ft | 115 kts | 278° |
| 2026-04-25 13:00 | 47.93243 | 13.93498 | 15058 ft | 115 kts | 277° |
| 2026-04-25 13:00 | 47.93327 | 13.92310 | 15058 ft | 115 kts | 277° |
| 2026-04-25 13:01 | 47.93411 | 13.91122 | 15057 ft | 115 kts | 278° |
| 2026-04-25 13:01 | 47.93495 | 13.89935 | 15060 ft | 116 kts | 278° |
| 2026-04-25 13:01 | 47.93578 | 13.88758 | 15058 ft | 116 kts | 277° |
| 2026-04-25 13:01 | 47.93662 | 13.87564 | 15060 ft | 116 kts | 277° |
| 2026-04-25 13:02 | 47.93747 | 13.86360 | 15061 ft | 117 kts | 277° |
| 2026-04-25 13:02 | 47.93832 | 13.85152 | 15062 ft | 117 kts | 277° |
| 2026-04-25 13:02 | 47.93917 | 13.83946 | 15063 ft | 117 kts | 277° |
| 2026-04-25 13:02 | 47.94001 | 13.82743 | 15061 ft | 116 kts | 277° |
| 2026-04-25 13:03 | 47.94085 | 13.81542 | 15062 ft | 116 kts | 277° |
| 2026-04-25 13:03 | 47.94169 | 13.80339 | 15063 ft | 117 kts | 277° |
| 2026-04-25 13:03 | 47.94253 | 13.79141 | 15060 ft | 116 kts | 277° |
| 2026-04-25 13:03 | 47.94335 | 13.77968 | 15059 ft | 115 kts | 278° |
| 2026-04-25 13:04 | 47.94417 | 13.76784 | 15061 ft | 115 kts | 277° |
| 2026-04-25 13:04 | 47.94500 | 13.75598 | 15063 ft | 115 kts | 277° |
| 2026-04-25 13:04 | 47.94582 | 13.74407 | 15057 ft | 114 kts | 278° |
| 2026-04-25 13:04 | 47.94663 | 13.73231 | 15059 ft | 115 kts | 278° |
| 2026-04-25 13:05 | 47.94745 | 13.72051 | 15063 ft | 114 kts | 277° |
| 2026-04-25 13:05 | 47.94827 | 13.70868 | 15060 ft | 115 kts | 277° |
| 2026-04-25 13:05 | 47.94909 | 13.69678 | 15061 ft | 115 kts | 277° |
| 2026-04-25 13:05 | 47.94990 | 13.68500 | 15066 ft | 116 kts | 277° |
| 2026-04-25 13:06 | 47.95073 | 13.67298 | 15057 ft | 117 kts | 277° |
| 2026-04-25 13:06 | 47.95155 | 13.66090 | 15058 ft | 117 kts | 277° |
| 2026-04-25 13:06 | 47.95239 | 13.64880 | 15059 ft | 117 kts | 277° |
| 2026-04-25 13:06 | 47.95321 | 13.63672 | 15060 ft | 117 kts | 277° |
| 2026-04-25 13:07 | 47.95404 | 13.62465 | 15058 ft | 117 kts | 277° |
| 2026-04-25 13:07 | 47.95486 | 13.61261 | 15058 ft | 117 kts | 277° |
| 2026-04-25 13:07 | 47.95568 | 13.60056 | 15057 ft | 117 kts | 277° |
| 2026-04-25 13:07 | 47.95649 | 13.58867 | 15058 ft | 117 kts | 277° |
| 2026-04-25 13:08 | 47.95730 | 13.57661 | 15061 ft | 117 kts | 277° |
| 2026-04-25 13:08 | 47.95812 | 13.56457 | 15061 ft | 117 kts | 277° |
| 2026-04-25 13:08 | 47.95893 | 13.55258 | 15058 ft | 116 kts | 277° |
| 2026-04-25 13:08 | 47.95974 | 13.54063 | 15058 ft | 116 kts | 277° |
| 2026-04-25 13:09 | 47.96055 | 13.52869 | 15061 ft | 115 kts | 277° |
| 2026-04-25 13:09 | 47.96134 | 13.51681 | 15056 ft | 115 kts | 277° |
| 2026-04-25 13:09 | 47.96214 | 13.50494 | 15057 ft | 115 kts | 277° |
| 2026-04-25 13:09 | 47.96294 | 13.49311 | 15057 ft | 114 kts | 277° |
| 2026-04-25 13:10 | 47.96372 | 13.48149 | 15055 ft | 114 kts | 277° |
| 2026-04-25 13:10 | 47.96451 | 13.46969 | 15054 ft | 115 kts | 277° |
| 2026-04-25 13:10 | 47.96531 | 13.45772 | 15054 ft | 116 kts | 277° |
| 2026-04-25 13:10 | 47.96611 | 13.44576 | 15055 ft | 116 kts | 277° |
| 2026-04-25 13:11 | 47.96690 | 13.43384 | 15054 ft | 115 kts | 277° |
| 2026-04-25 13:11 | 47.96769 | 13.42199 | 15054 ft | 115 kts | 277° |
| 2026-04-25 13:11 | 47.96848 | 13.41013 | 15055 ft | 115 kts | 277° |
| 2026-04-25 13:11 | 47.96925 | 13.39839 | 15055 ft | 115 kts | 277° |
| 2026-04-25 13:12 | 47.97004 | 13.38649 | 15065 ft | 116 kts | 277° |
| 2026-04-25 13:12 | 47.97083 | 13.37453 | 15060 ft | 116 kts | 277° |
| 2026-04-25 13:12 | 47.97162 | 13.36258 | 15062 ft | 115 kts | 277° |
| 2026-04-25 13:12 | 47.97214 | 13.35473 | 15057 ft | 115 kts | 277° |
| 2026-04-25 13:13 | 47.97318 | 13.33887 | 15059 ft | 115 kts | 277° |
| 2026-04-25 13:13 | 47.97396 | 13.32697 | 15058 ft | 115 kts | 277° |
| 2026-04-25 13:13 | 47.97475 | 13.31507 | 15061 ft | 115 kts | 277° |
| 2026-04-25 13:13 | 47.97553 | 13.30317 | 15060 ft | 115 kts | 277° |
| 2026-04-25 13:14 | 47.97630 | 13.29131 | 15056 ft | 115 kts | 277° |
| 2026-04-25 13:14 | 47.97706 | 13.27957 | 15055 ft | 115 kts | 277° |
| 2026-04-25 13:14 | 47.97784 | 13.26767 | 15056 ft | 115 kts | 277° |
| 2026-04-25 13:14 | 47.97862 | 13.25571 | 15051 ft | 116 kts | 277° |
| 2026-04-25 13:15 | 47.97940 | 13.24367 | 15059 ft | 117 kts | 277° |
| 2026-04-25 13:15 | 47.98018 | 13.23165 | 15057 ft | 116 kts | 277° |
| 2026-04-25 13:15 | 47.98096 | 13.21966 | 15057 ft | 116 kts | 277° |
| 2026-04-25 13:15 | 47.98173 | 13.20769 | 15057 ft | 116 kts | 277° |
| 2026-04-25 13:16 | 47.98250 | 13.19568 | 15059 ft | 116 kts | 277° |
| 2026-04-25 13:16 | 47.98327 | 13.18382 | 15060 ft | 117 kts | 277° |
| 2026-04-25 13:16 | 47.98404 | 13.17177 | 15060 ft | 117 kts | 277° |
| 2026-04-25 13:16 | 47.98482 | 13.15975 | 15061 ft | 116 kts | 277° |
| 2026-04-25 13:17 | 47.98559 | 13.14767 | 15067 ft | 118 kts | 277° |
| 2026-04-25 13:17 | 47.98637 | 13.13550 | 15062 ft | 118 kts | 277° |
| 2026-04-25 13:17 | 47.98714 | 13.12338 | 15062 ft | 117 kts | 277° |
| 2026-04-25 13:17 | 47.98791 | 13.11128 | 15064 ft | 118 kts | 277° |
| 2026-04-25 13:18 | 47.98868 | 13.09917 | 15064 ft | 117 kts | 277° |
| 2026-04-25 13:18 | 47.98945 | 13.08711 | 15061 ft | 116 kts | 277° |
| 2026-04-25 13:18 | 47.99020 | 13.07524 | 15062 ft | 116 kts | 277° |
| 2026-04-25 13:18 | 47.99096 | 13.06324 | 15060 ft | 116 kts | 277° |
| 2026-04-25 13:19 | 47.99172 | 13.05120 | 15062 ft | 117 kts | 277° |
| 2026-04-25 13:19 | 47.99249 | 13.03908 | 15070 ft | 117 kts | 277° |
| 2026-04-25 13:19 | 47.99326 | 13.02691 | 15065 ft | 118 kts | 277° |
| 2026-04-25 13:19 | 47.99351 | 13.02295 | 15069 ft | 118 kts | 277° |
| 2026-04-25 13:20 | 47.99480 | 13.00242 | 15074 ft | 119 kts | 277° |
| 2026-04-25 13:20 | 47.99556 | 12.99020 | 15067 ft | 118 kts | 277° |
| 2026-04-25 13:20 | 47.99631 | 12.97824 | 15066 ft | 117 kts | 277° |
| 2026-04-25 13:20 | 47.99707 | 12.96620 | 15065 ft | 116 kts | 277° |
| 2026-04-25 13:21 | 47.99782 | 12.95417 | 15071 ft | 117 kts | 277° |
| 2026-04-25 13:21 | 47.99857 | 12.94206 | 15065 ft | 117 kts | 277° |
| 2026-04-25 13:21 | 47.99932 | 12.93000 | 15065 ft | 116 kts | 277° |
| 2026-04-25 13:21 | 48.00007 | 12.91795 | 15064 ft | 117 kts | 277° |
| 2026-04-25 13:22 | 48.00081 | 12.90591 | 15064 ft | 117 kts | 277° |
| 2026-04-25 13:22 | 48.00156 | 12.89378 | 15067 ft | 118 kts | 277° |
| 2026-04-25 13:22 | 48.00231 | 12.88174 | 15065 ft | 118 kts | 277° |
| 2026-04-25 13:23 | 48.00380 | 12.85742 | 15067 ft | 117 kts | 277° |
| 2026-04-25 13:23 | 48.00455 | 12.84535 | 15065 ft | 116 kts | 277° |
| 2026-04-25 13:23 | 48.00529 | 12.83332 | 15067 ft | 117 kts | 277° |
| 2026-04-25 13:23 | 48.00602 | 12.82125 | 15073 ft | 117 kts | 277° |
| 2026-04-25 13:24 | 48.00677 | 12.80911 | 15069 ft | 117 kts | 277° |
| 2026-04-25 13:24 | 48.00749 | 12.79713 | 15070 ft | 117 kts | 277° |
| 2026-04-25 13:24 | 48.00824 | 12.78500 | 15069 ft | 117 kts | 277° |
| 2026-04-25 13:24 | 48.00897 | 12.77289 | 15069 ft | 117 kts | 277° |
| 2026-04-25 13:25 | 48.00971 | 12.76074 | 15070 ft | 118 kts | 277° |
| 2026-04-25 13:25 | 48.01045 | 12.74851 | 15069 ft | 118 kts | 277° |
| 2026-04-25 13:25 | 48.01118 | 12.73632 | 15071 ft | 118 kts | 277° |
| 2026-04-25 13:25 | 48.01192 | 12.72412 | 15069 ft | 118 kts | 277° |
| 2026-04-25 13:26 | 48.01265 | 12.71213 | 15077 ft | 117 kts | 277° |
| 2026-04-25 13:26 | 48.01337 | 12.70007 | 15075 ft | 116 kts | 277° |
| 2026-04-25 13:26 | 48.01409 | 12.68798 | 15077 ft | 118 kts | 277° |
| 2026-04-25 13:26 | 48.01482 | 12.67578 | 15073 ft | 118 kts | 277° |
| 2026-04-25 13:27 | 48.01555 | 12.66363 | 15072 ft | 117 kts | 277° |
| 2026-04-25 13:27 | 48.01628 | 12.65149 | 15071 ft | 118 kts | 277° |
| 2026-04-25 13:27 | 48.01700 | 12.63931 | 15073 ft | 118 kts | 277° |
| 2026-04-25 13:27 | 48.01773 | 12.62714 | 15073 ft | 117 kts | 277° |
| 2026-04-25 13:28 | 48.01845 | 12.61501 | 15070 ft | 117 kts | 277° |
| 2026-04-25 13:28 | 48.01868 | 12.61108 | 15070 ft | 117 kts | 277° |
| 2026-04-25 13:28 | 48.01988 | 12.59085 | 15068 ft | 118 kts | 277° |
| 2026-04-25 13:28 | 48.02060 | 12.57866 | 15068 ft | 118 kts | 276° |
| 2026-04-25 13:29 | 48.02131 | 12.56655 | 15071 ft | 117 kts | 277° |
| 2026-04-25 13:29 | 48.02203 | 12.55442 | 15074 ft | 118 kts | 277° |
| 2026-04-25 13:29 | 48.02274 | 12.54221 | 15072 ft | 118 kts | 276° |
| 2026-04-25 13:30 | 48.02417 | 12.51791 | 15073 ft | 117 kts | 277° |
| 2026-04-25 13:30 | 48.02488 | 12.50581 | 15070 ft | 118 kts | 277° |
| 2026-04-25 13:30 | 48.02559 | 12.49361 | 15072 ft | 118 kts | 276° |
| 2026-04-25 13:31 | 48.02699 | 12.46937 | 15072 ft | 118 kts | 276° |
| 2026-04-25 13:31 | 48.02770 | 12.45725 | 15070 ft | 117 kts | 276° |
| 2026-04-25 13:31 | 48.02840 | 12.44521 | 15069 ft | 117 kts | 276° |
| 2026-04-25 13:31 | 48.02909 | 12.43316 | 15070 ft | 116 kts | 276° |
| 2026-04-25 13:32 | 48.02979 | 12.42116 | 15071 ft | 115 kts | 276° |
| 2026-04-25 13:32 | 48.03048 | 12.40923 | 15068 ft | 115 kts | 276° |
| 2026-04-25 13:32 | 48.03116 | 12.39724 | 15069 ft | 116 kts | 276° |
| 2026-04-25 13:32 | 48.03184 | 12.38537 | 15069 ft | 116 kts | 276° |
| 2026-04-25 13:33 | 48.03253 | 12.37329 | 15074 ft | 117 kts | 276° |
| 2026-04-25 13:33 | 48.03322 | 12.36119 | 15071 ft | 117 kts | 276° |
| 2026-04-25 13:33 | 48.03391 | 12.34910 | 15070 ft | 117 kts | 276° |
| 2026-04-25 13:33 | 48.03415 | 12.34501 | 15071 ft | 116 kts | 276° |
| 2026-04-25 13:34 | 48.03529 | 12.32490 | 15072 ft | 117 kts | 276° |
| 2026-04-25 13:34 | 48.03598 | 12.31280 | 15075 ft | 117 kts | 276° |
| 2026-04-25 13:34 | 48.03667 | 12.30066 | 15074 ft | 118 kts | 276° |
| 2026-04-25 13:34 | 48.03735 | 12.28849 | 15072 ft | 117 kts | 276° |
| 2026-04-25 13:35 | 48.03804 | 12.27639 | 15073 ft | 117 kts | 276° |
| 2026-04-25 13:35 | 48.03871 | 12.26445 | 15075 ft | 117 kts | 276° |
| 2026-04-25 13:35 | 48.03939 | 12.25237 | 15074 ft | 117 kts | 276° |
| 2026-04-25 13:35 | 48.04007 | 12.24025 | 15074 ft | 117 kts | 276° |
| 2026-04-25 13:36 | 48.04075 | 12.22814 | 15077 ft | 117 kts | 276° |
| 2026-04-25 13:36 | 48.04142 | 12.21606 | 15079 ft | 117 kts | 276° |
| 2026-04-25 13:36 | 48.04209 | 12.20391 | 15078 ft | 117 kts | 276° |
| 2026-04-25 13:36 | 48.04277 | 12.19178 | 15078 ft | 117 kts | 276° |
| 2026-04-25 13:37 | 48.04344 | 12.17971 | 15078 ft | 117 kts | 276° |
| 2026-04-25 13:37 | 48.04411 | 12.16777 | 15077 ft | 117 kts | 276° |
| 2026-04-25 13:37 | 48.04477 | 12.15572 | 15079 ft | 116 kts | 276° |
| 2026-04-25 13:37 | 48.04544 | 12.14368 | 15078 ft | 116 kts | 276° |
| 2026-04-25 13:38 | 48.04611 | 12.13157 | 15077 ft | 117 kts | 276° |
| 2026-04-25 13:38 | 48.04677 | 12.11947 | 15082 ft | 117 kts | 276° |
| 2026-04-25 13:38 | 48.04744 | 12.10738 | 15077 ft | 117 kts | 276° |
| 2026-04-25 13:38 | 48.04810 | 12.09526 | 15077 ft | 117 kts | 276° |
| 2026-04-25 13:39 | 48.04876 | 12.08317 | 15080 ft | 117 kts | 276° |
| 2026-04-25 13:39 | 48.04943 | 12.07101 | 15079 ft | 117 kts | 276° |
| 2026-04-25 13:39 | 48.05009 | 12.05884 | 15084 ft | 118 kts | 276° |
| 2026-04-25 13:39 | 48.05074 | 12.04677 | 15081 ft | 118 kts | 276° |
| 2026-04-25 13:40 | 48.05141 | 12.03450 | 15081 ft | 118 kts | 276° |
| 2026-04-25 13:40 | 48.05207 | 12.02233 | 15080 ft | 117 kts | 276° |
| 2026-04-25 13:40 | 48.05273 | 12.01022 | 15080 ft | 117 kts | 276° |
| 2026-04-25 13:40 | 48.05338 | 11.99804 | 15082 ft | 118 kts | 276° |
| 2026-04-25 13:41 | 48.05404 | 11.98581 | 15077 ft | 118 kts | 276° |
| 2026-04-25 13:41 | 48.05469 | 11.97375 | 15083 ft | 119 kts | 276° |
| 2026-04-25 13:41 | 48.05535 | 11.96146 | 15078 ft | 119 kts | 276° |
| 2026-04-25 13:41 | 48.05601 | 11.94918 | 15080 ft | 118 kts | 276° |
| 2026-04-25 13:42 | 48.05666 | 11.93689 | 15080 ft | 118 kts | 276° |
| 2026-04-25 13:42 | 48.05731 | 11.92470 | 15078 ft | 117 kts | 276° |
| 2026-04-25 13:42 | 48.05796 | 11.91257 | 15078 ft | 117 kts | 276° |
| 2026-04-25 13:42 | 48.05860 | 11.90046 | 15078 ft | 117 kts | 276° |
| 2026-04-25 13:43 | 48.05924 | 11.88832 | 15076 ft | 117 kts | 276° |
| 2026-04-25 13:43 | 48.05988 | 11.87633 | 15081 ft | 117 kts | 276° |
| 2026-04-25 13:43 | 48.06052 | 11.86414 | 15032 ft | 121 kts | 276° |
| 2026-04-25 13:43 | 48.06121 | 11.85120 | 14848 ft | 128 kts | 276° |
| 2026-04-25 13:44 | 48.06192 | 11.83763 | 14663 ft | 133 kts | 276° |
| 2026-04-25 13:44 | 48.06264 | 11.82387 | 14479 ft | 133 kts | 276° |
| 2026-04-25 13:44 | 48.06336 | 11.81007 | 14295 ft | 134 kts | 276° |
| 2026-04-25 13:44 | 48.06409 | 11.79619 | 14108 ft | 134 kts | 276° |
| 2026-04-25 13:45 | 48.06480 | 11.78250 | 13924 ft | 134 kts | 276° |
| 2026-04-25 13:45 | 48.06552 | 11.76855 | 13723 ft | 135 kts | 276° |
| 2026-04-25 13:45 | 48.06625 | 11.75447 | 13512 ft | 136 kts | 276° |
| 2026-04-25 13:45 | 48.06698 | 11.74042 | 13304 ft | 136 kts | 276° |
| 2026-04-25 13:46 | 48.06771 | 11.72633 | 13097 ft | 136 kts | 276° |
| 2026-04-25 13:46 | 48.06843 | 11.71219 | 12893 ft | 137 kts | 276° |
| 2026-04-25 13:46 | 48.06917 | 11.69798 | 12687 ft | 137 kts | 276° |
| 2026-04-25 13:46 | 48.06989 | 11.68381 | 12487 ft | 137 kts | 276° |
| 2026-04-25 13:47 | 48.07062 | 11.66960 | 12284 ft | 137 kts | 276° |
| 2026-04-25 13:47 | 48.07135 | 11.65537 | 12082 ft | 137 kts | 276° |
| 2026-04-25 13:47 | 48.07206 | 11.64130 | 11886 ft | 138 kts | 275° |
| 2026-04-25 13:47 | 48.07278 | 11.62706 | 11690 ft | 138 kts | 276° |
| 2026-04-25 13:48 | 48.07350 | 11.61278 | 11493 ft | 138 kts | 275° |
| 2026-04-25 13:48 | 48.07423 | 11.59845 | 11296 ft | 138 kts | 275° |
| 2026-04-25 13:48 | 48.07495 | 11.58416 | 11101 ft | 138 kts | 275° |
| 2026-04-25 13:48 | 48.07566 | 11.56985 | 10907 ft | 138 kts | 275° |
| 2026-04-25 13:49 | 48.07638 | 11.55554 | 10705 ft | 138 kts | 275° |
| 2026-04-25 13:49 | 48.07710 | 11.54116 | 10522 ft | 139 kts | 275° |
| 2026-04-25 13:49 | 48.07780 | 11.52693 | 10333 ft | 139 kts | 275° |
| 2026-04-25 13:49 | 48.07853 | 11.51250 | 10144 ft | 139 kts | 275° |
| 2026-04-25 13:50 | 48.07924 | 11.49803 | 9946 ft | 139 kts | 275° |
| 2026-04-25 13:50 | 48.07996 | 11.48354 | 9740 ft | 140 kts | 275° |
| 2026-04-25 13:50 | 48.08067 | 11.46900 | 9529 ft | 140 kts | 275° |
| 2026-04-25 13:50 | 48.08139 | 11.45454 | 9321 ft | 139 kts | 275° |
| 2026-04-25 13:51 | 48.08210 | 11.44008 | 9113 ft | 139 kts | 275° |
| 2026-04-25 13:51 | 48.08280 | 11.42564 | 8899 ft | 139 kts | 275° |
| 2026-04-25 13:51 | 48.08351 | 11.41117 | 8690 ft | 140 kts | 274° |
| 2026-04-25 13:51 | 48.08421 | 11.39683 | 8490 ft | 141 kts | 274° |
| 2026-04-25 13:52 | 48.08492 | 11.38223 | 8289 ft | 141 kts | 274° |
| 2026-04-25 13:52 | 48.08563 | 11.36762 | 8088 ft | 141 kts | 275° |
| 2026-04-25 13:52 | 48.08630 | 11.35297 | 7888 ft | 141 kts | 274° |
| 2026-04-25 13:52 | 48.08699 | 11.33833 | 7688 ft | 141 kts | 274° |
| 2026-04-25 13:53 | 48.08768 | 11.32372 | 7491 ft | 141 kts | 274° |
| 2026-04-25 13:53 | 48.08836 | 11.30932 | 7297 ft | 135 kts | 274° |
| 2026-04-25 13:53 | 48.08904 | 11.29550 | 7092 ft | 131 kts | 274° |
| 2026-04-25 13:53 | 48.09078 | 11.28255 | 6955 ft | 128 kts | 293° |
| 2026-04-25 13:54 | 48.09721 | 11.27324 | 6761 ft | 136 kts | 332° |
| 2026-04-25 13:54 | 48.10665 | 11.27248 | 6645 ft | 143 kts | 10° |
| 2026-04-25 13:54 | 48.11523 | 11.28050 | 6536 ft | 145 kts | 37° |
| 2026-04-25 13:54 | 48.12209 | 11.29119 | 6498 ft | 143 kts | 44° |
| 2026-04-25 13:55 | 48.12873 | 11.30296 | 6300 ft | 151 kts | 46° |
| 2026-04-25 13:55 | 48.13525 | 11.31494 | 6238 ft | 148 kts | 48° |
| 2026-04-25 13:55 | 48.14130 | 11.32765 | 6091 ft | 151 kts | 50° |
| 2026-04-25 13:55 | 48.14633 | 11.34119 | 5944 ft | 153 kts | 71° |
| 2026-04-25 13:56 | 48.14527 | 11.35692 | 5689 ft | 159 kts | 122° |
| 2026-04-25 13:56 | 48.13625 | 11.36518 | 5369 ft | 155 kts | 179° |
| 2026-04-25 13:56 | 48.12694 | 11.36023 | 5097 ft | 135 kts | 229° |
| 2026-04-25 13:56 | 48.12298 | 11.34808 | 4829 ft | 125 kts | 266° |
| 2026-04-25 13:57 | 48.12397 | 11.33569 | 4631 ft | 121 kts | 283° |
| 2026-04-25 13:57 | 48.12460 | 11.33155 | 4522 ft | 120 kts | 284° |
| 2026-04-25 13:57 | 48.13224 | 11.31682 | 4284 ft | 115 kts | 345° |
| 2026-04-25 13:57 | 48.14017 | 11.32081 | 4041 ft | 132 kts | 37° |
| 2026-04-25 13:58 | 48.14578 | 11.33159 | 3858 ft | 133 kts | 50° |
| 2026-04-25 13:58 | 48.14916 | 11.34357 | 3723 ft | 132 kts | 104° |
| 2026-04-25 13:58 | 48.14151 | 11.34805 | 3289 ft | 130 kts | 212° |
| 2026-04-25 13:58 | 48.13411 | 11.34241 | 3330 ft | 114 kts | 214° |
| 2026-04-25 13:59 | 48.12750 | 11.33621 | 3478 ft | 114 kts | 217° |
| 2026-04-25 13:59 | 48.11997 | 11.33133 | 3456 ft | 122 kts | 211° |
| 2026-04-25 13:59 | 48.11232 | 11.32521 | 3124 ft | 128 kts | 219° |
| 2026-04-25 13:59 | 48.10563 | 11.31665 | 2836 ft | 125 kts | 230° |
| 2026-04-25 14:00 | 48.09962 | 11.30773 | 2572 ft | 118 kts | 230° |
| 2026-04-25 14:00 | 48.09386 | 11.30007 | 2184 ft | 106 kts | 223° |
| 2026-04-25 14:00 | 48.08856 | 11.29294 | 1931 ft | 95 kts | 224° |
| 2026-04-25 14:00 | 48.08435 | 11.28716 | 1907 ft | 69 kts | 225° |
| 2026-04-25 14:01 | 48.08157 | 11.28326 | 1906 ft | 43 kts | 224° |
| 2026-04-25 14:01 | 48.07979 | 11.28096 | 1920 ft | 27 kts | 227° |
| 2026-04-25 14:01 | 48.07870 | 11.27938 | 1927 ft | 19 kts | 221° |
| 2026-04-25 14:01 | 48.07775 | 11.27797 | 1930 ft | 19 kts | 227° |
| 2026-04-25 14:02 | 48.07680 | 11.27667 | 1933 ft | 16 kts | 218° |
| 2026-04-25 14:02 | 48.07632 | 11.27598 | 1934 ft | 4 kts | 264° |
| 2026-04-25 14:02 | 48.07649 | 11.27555 | 1934 ft | 6 kts | 314° |
| 2026-04-25 14:02 | 48.07664 | 11.27536 | 1934 ft | 10 kts | 324° |
| 2026-04-25 14:03 | 48.07857 | 11.27731 | 1928 ft | 28 kts | 28° |
| 2026-04-25 14:03 | 48.08042 | 11.27777 | 1924 ft | 26 kts | 359° |
| 2026-04-25 14:03 | 48.08140 | 11.27831 | 1921 ft | 11 kts | 46° |
| 2026-04-25 14:03 | 48.08189 | 11.27888 | 1919 ft | 6 kts | 8° |
| 2026-04-25 14:04 | 48.08214 | 11.27866 | 1919 ft | 4 kts | 30° |
| 2026-04-25 14:04 | 48.08219 | 11.27871 | 1919 ft | 0 kts | 36° |